sensor_id;sensor_type;location;lat;lon;timestamp;P1;durP1;ratioP1;P2;durP2;ratioP2
24547;SDS011;12713;51.624;4.924;2022-12-20T00:01:57;12.27;;;7.50;;
24547;SDS011;12713;51.624;4.924;2022-12-20T00:04:26;11.88;;;7.68;;
24547;SDS011;12713;51.624;4.924;2022-12-20T00:06:52;14.15;;;7.22;;
24547;SDS011;12713;51.624;4.924;2022-12-20T00:09:18;10.75;;;6.43;;
24547;SDS011;12713;51.624;4.924;2022-12-20T00:11:44;4.97;;;3.42;;
24547;SDS011;12713;51.624;4.924;2022-12-20T00:14:11;5.78;;;4.03;;
24547;SDS011;12713;51.624;4.924;2022-12-20T00:16:38;5.82;;;4.53;;
24547;SDS011;12713;51.624;4.924;2022-12-20T00:19:08;8.05;;;3.45;;
24547;SDS011;12713;51.624;4.924;2022-12-20T00:21:37;7.15;;;5.03;;
24547;SDS011;12713;51.624;4.924;2022-12-20T00:24:11;6.45;;;4.22;;
24547;SDS011;12713;51.624;4.924;2022-12-20T00:26:43;5.38;;;3.83;;
24547;SDS011;12713;51.624;4.924;2022-12-20T00:29:11;7.95;;;4.15;;
24547;SDS011;12713;51.624;4.924;2022-12-20T00:31:40;5.68;;;3.65;;
24547;SDS011;12713;51.624;4.924;2022-12-20T00:40:23;6.13;;;3.83;;
24547;SDS011;12713;51.624;4.924;2022-12-20T00:42:50;9.10;;;4.25;;
24547;SDS011;12713;51.624;4.924;2022-12-20T00:45:39;6.43;;;3.78;;
24547;SDS011;12713;51.624;4.924;2022-12-20T00:48:16;9.93;;;4.47;;
24547;SDS011;12713;51.624;4.924;2022-12-20T00:50:43;7.90;;;4.70;;
24547;SDS011;12713;51.624;4.924;2022-12-20T00:56:07;10.50;;;5.43;;
24547;SDS011;12713;51.624;4.924;2022-12-20T00:58:51;9.85;;;4.00;;
24547;SDS011;12713;51.624;4.924;2022-12-20T01:01:21;6.35;;;4.65;;
24547;SDS011;12713;51.624;4.924;2022-12-20T01:06:53;9.68;;;5.32;;
24547;SDS011;12713;51.624;4.924;2022-12-20T01:09:24;8.48;;;6.25;;
24547;SDS011;12713;51.624;4.924;2022-12-20T01:11:59;10.18;;;6.30;;
24547;SDS011;12713;51.624;4.924;2022-12-20T01:14:31;9.80;;;6.25;;
24547;SDS011;12713;51.624;4.924;2022-12-20T01:17:05;13.75;;;8.93;;
24547;SDS011;12713;51.624;4.924;2022-12-20T01:22:46;19.08;;;13.18;;
24547;SDS011;12713;51.624;4.924;2022-12-20T01:25:14;23.65;;;14.35;;
24547;SDS011;12713;51.624;4.924;2022-12-20T01:27:50;26.17;;;18.42;;
24547;SDS011;12713;51.624;4.924;2022-12-20T01:36:35;13.13;;;10.03;;
24547;SDS011;12713;51.624;4.924;2022-12-20T01:45:22;18.58;;;12.07;;
24547;SDS011;12713;51.624;4.924;2022-12-20T01:48:17;16.08;;;11.13;;
24547;SDS011;12713;51.624;4.924;2022-12-20T01:54:09;22.33;;;14.15;;
24547;SDS011;12713;51.624;4.924;2022-12-20T01:56:48;18.42;;;13.48;;
24547;SDS011;12713;51.624;4.924;2022-12-20T02:02:29;18.67;;;11.82;;
24547;SDS011;12713;51.624;4.924;2022-12-20T02:23:03;21.45;;;14.13;;
24547;SDS011;12713;51.624;4.924;2022-12-20T02:31:02;8.35;;;4.85;;
24547;SDS011;12713;51.624;4.924;2022-12-20T02:36:44;8.43;;;5.50;;
24547;SDS011;12713;51.624;4.924;2022-12-20T02:39:19;7.85;;;5.05;;
24547;SDS011;12713;51.624;4.924;2022-12-20T02:41:52;12.68;;;6.40;;
24547;SDS011;12713;51.624;4.924;2022-12-20T02:44:20;9.13;;;5.75;;
24547;SDS011;12713;51.624;4.924;2022-12-20T02:47:07;13.60;;;9.10;;
24547;SDS011;12713;51.624;4.924;2022-12-20T02:49:34;22.88;;;16.67;;
24547;SDS011;12713;51.624;4.924;2022-12-20T02:52:06;21.25;;;14.02;;
24547;SDS011;12713;51.624;4.924;2022-12-20T02:54:32;20.33;;;15.35;;
24547;SDS011;12713;51.624;4.924;2022-12-20T02:59:32;14.43;;;10.60;;
24547;SDS011;12713;51.624;4.924;2022-12-20T03:02:01;15.73;;;11.50;;
24547;SDS011;12713;51.624;4.924;2022-12-20T03:04:27;16.88;;;12.82;;
24547;SDS011;12713;51.624;4.924;2022-12-20T03:07:03;17.23;;;10.70;;
24547;SDS011;12713;51.624;4.924;2022-12-20T03:09:30;15.73;;;9.75;;
24547;SDS011;12713;51.624;4.924;2022-12-20T03:11:56;9.90;;;7.82;;
24547;SDS011;12713;51.624;4.924;2022-12-20T03:14:22;13.50;;;9.82;;
24547;SDS011;12713;51.624;4.924;2022-12-20T03:16:49;11.07;;;6.93;;
24547;SDS011;12713;51.624;4.924;2022-12-20T03:19:15;9.35;;;5.82;;
24547;SDS011;12713;51.624;4.924;2022-12-20T03:21:41;9.85;;;5.80;;
24547;SDS011;12713;51.624;4.924;2022-12-20T03:24:07;12.45;;;5.35;;
24547;SDS011;12713;51.624;4.924;2022-12-20T03:26:35;9.48;;;6.57;;
24547;SDS011;12713;51.624;4.924;2022-12-20T03:29:03;13.73;;;6.63;;
24547;SDS011;12713;51.624;4.924;2022-12-20T03:31:29;10.90;;;6.20;;
24547;SDS011;12713;51.624;4.924;2022-12-20T03:33:56;9.52;;;6.50;;
24547;SDS011;12713;51.624;4.924;2022-12-20T03:36:22;7.95;;;5.68;;
24547;SDS011;12713;51.624;4.924;2022-12-20T03:38:51;10.93;;;7.15;;
24547;SDS011;12713;51.624;4.924;2022-12-20T03:41:18;8.57;;;4.97;;
24547;SDS011;12713;51.624;4.924;2022-12-20T03:43:45;6.80;;;4.90;;
24547;SDS011;12713;51.624;4.924;2022-12-20T03:46:11;7.65;;;4.40;;
24547;SDS011;12713;51.624;4.924;2022-12-20T03:48:37;7.75;;;4.18;;
24547;SDS011;12713;51.624;4.924;2022-12-20T03:51:04;5.68;;;4.10;;
24547;SDS011;12713;51.624;4.924;2022-12-20T03:53:30;11.73;;;4.40;;
24547;SDS011;12713;51.624;4.924;2022-12-20T03:55:56;9.93;;;5.22;;
24547;SDS011;12713;51.624;4.924;2022-12-20T03:58:22;10.57;;;7.07;;
24547;SDS011;12713;51.624;4.924;2022-12-20T04:00:48;13.50;;;6.82;;
24547;SDS011;12713;51.624;4.924;2022-12-20T04:03:14;17.58;;;9.57;;
24547;SDS011;12713;51.624;4.924;2022-12-20T04:05:40;12.57;;;7.65;;
24547;SDS011;12713;51.624;4.924;2022-12-20T04:08:06;10.15;;;6.10;;
24547;SDS011;12713;51.624;4.924;2022-12-20T04:10:32;14.43;;;5.93;;
24547;SDS011;12713;51.624;4.924;2022-12-20T04:13:21;10.02;;;4.57;;
24547;SDS011;12713;51.624;4.924;2022-12-20T04:15:47;11.93;;;5.78;;
24547;SDS011;12713;51.624;4.924;2022-12-20T04:18:16;7.93;;;4.97;;
24547;SDS011;12713;51.624;4.924;2022-12-20T04:20:43;6.80;;;3.90;;
24547;SDS011;12713;51.624;4.924;2022-12-20T04:23:09;6.43;;;4.30;;
24547;SDS011;12713;51.624;4.924;2022-12-20T04:25:36;6.65;;;4.15;;
24547;SDS011;12713;51.624;4.924;2022-12-20T04:28:01;7.35;;;3.88;;
24547;SDS011;12713;51.624;4.924;2022-12-20T04:30:27;8.05;;;4.07;;
24547;SDS011;12713;51.624;4.924;2022-12-20T04:32:53;5.53;;;4.20;;
24547;SDS011;12713;51.624;4.924;2022-12-20T04:35:20;7.22;;;4.35;;
24547;SDS011;12713;51.624;4.924;2022-12-20T04:37:46;6.65;;;4.03;;
24547;SDS011;12713;51.624;4.924;2022-12-20T04:40:12;7.75;;;4.70;;
24547;SDS011;12713;51.624;4.924;2022-12-20T04:42:38;15.52;;;11.32;;
24547;SDS011;12713;51.624;4.924;2022-12-20T04:45:04;19.35;;;12.23;;
24547;SDS011;12713;51.624;4.924;2022-12-20T04:47:30;26.67;;;14.63;;
24547;SDS011;12713;51.624;4.924;2022-12-20T04:49:59;16.58;;;10.13;;
24547;SDS011;12713;51.624;4.924;2022-12-20T04:52:25;13.52;;;8.85;;
24547;SDS011;12713;51.624;4.924;2022-12-20T04:55:10;15.98;;;10.65;;
24547;SDS011;12713;51.624;4.924;2022-12-20T04:57:36;17.13;;;11.23;;
24547;SDS011;12713;51.624;4.924;2022-12-20T05:00:02;13.30;;;10.07;;
24547;SDS011;12713;51.624;4.924;2022-12-20T05:02:29;13.90;;;9.52;;
24547;SDS011;12713;51.624;4.924;2022-12-20T05:04:55;15.13;;;8.27;;
24547;SDS011;12713;51.624;4.924;2022-12-20T05:07:21;11.27;;;6.57;;
24547;SDS011;12713;51.624;4.924;2022-12-20T05:09:47;5.95;;;5.00;;
24547;SDS011;12713;51.624;4.924;2022-12-20T05:12:13;10.50;;;7.18;;
24547;SDS011;12713;51.624;4.924;2022-12-20T05:14:39;14.25;;;7.90;;
24547;SDS011;12713;51.624;4.924;2022-12-20T05:17:05;14.98;;;8.80;;
24547;SDS011;12713;51.624;4.924;2022-12-20T05:19:31;12.07;;;5.07;;
24547;SDS011;12713;51.624;4.924;2022-12-20T05:21:57;11.88;;;4.60;;
24547;SDS011;12713;51.624;4.924;2022-12-20T05:24:41;10.02;;;5.55;;
24547;SDS011;12713;51.624;4.924;2022-12-20T05:27:39;8.32;;;5.82;;
24547;SDS011;12713;51.624;4.924;2022-12-20T05:30:06;8.10;;;6.20;;
24547;SDS011;12713;51.624;4.924;2022-12-20T05:32:32;8.13;;;4.72;;
24547;SDS011;12713;51.624;4.924;2022-12-20T05:34:58;9.88;;;6.57;;
24547;SDS011;12713;51.624;4.924;2022-12-20T05:37:24;7.63;;;4.55;;
24547;SDS011;12713;51.624;4.924;2022-12-20T05:39:53;8.23;;;3.92;;
24547;SDS011;12713;51.624;4.924;2022-12-20T05:42:20;7.45;;;3.75;;
24547;SDS011;12713;51.624;4.924;2022-12-20T05:44:46;7.85;;;4.32;;
24547;SDS011;12713;51.624;4.924;2022-12-20T05:47:12;7.18;;;4.78;;
24547;SDS011;12713;51.624;4.924;2022-12-20T05:49:38;10.75;;;7.15;;
24547;SDS011;12713;51.624;4.924;2022-12-20T05:52:04;9.05;;;6.80;;
24547;SDS011;12713;51.624;4.924;2022-12-20T05:54:31;12.65;;;7.03;;
24547;SDS011;12713;51.624;4.924;2022-12-20T05:56:57;11.40;;;7.93;;
24547;SDS011;12713;51.624;4.924;2022-12-20T05:59:23;13.90;;;8.45;;
24547;SDS011;12713;51.624;4.924;2022-12-20T06:01:49;12.45;;;7.10;;
24547;SDS011;12713;51.624;4.924;2022-12-20T06:04:15;12.07;;;7.22;;
24547;SDS011;12713;51.624;4.924;2022-12-20T06:06:41;12.48;;;6.13;;
24547;SDS011;12713;51.624;4.924;2022-12-20T06:09:07;11.15;;;6.18;;
24547;SDS011;12713;51.624;4.924;2022-12-20T06:11:33;10.88;;;5.25;;
24547;SDS011;12713;51.624;4.924;2022-12-20T06:13:59;9.10;;;4.97;;
24547;SDS011;12713;51.624;4.924;2022-12-20T06:16:25;7.47;;;4.18;;
24547;SDS011;12713;51.624;4.924;2022-12-20T06:18:51;7.00;;;3.72;;
24547;SDS011;12713;51.624;4.924;2022-12-20T06:21:17;9.52;;;5.00;;
24547;SDS011;12713;51.624;4.924;2022-12-20T06:23:43;8.85;;;4.18;;
24547;SDS011;12713;51.624;4.924;2022-12-20T06:26:09;5.50;;;3.80;;
24547;SDS011;12713;51.624;4.924;2022-12-20T06:28:35;8.80;;;3.95;;
24547;SDS011;12713;51.624;4.924;2022-12-20T06:31:07;6.40;;;3.78;;
24547;SDS011;12713;51.624;4.924;2022-12-20T06:33:33;11.38;;;4.55;;
24547;SDS011;12713;51.624;4.924;2022-12-20T06:35:59;5.25;;;3.40;;
24547;SDS011;12713;51.624;4.924;2022-12-20T06:38:25;7.35;;;4.70;;
24547;SDS011;12713;51.624;4.924;2022-12-20T06:40:51;9.50;;;6.32;;
24547;SDS011;12713;51.624;4.924;2022-12-20T06:43:17;8.00;;;5.13;;
24547;SDS011;12713;51.624;4.924;2022-12-20T06:45:43;9.05;;;6.43;;
24547;SDS011;12713;51.624;4.924;2022-12-20T06:48:10;10.15;;;6.53;;
24547;SDS011;12713;51.624;4.924;2022-12-20T06:50:36;10.13;;;6.57;;
24547;SDS011;12713;51.624;4.924;2022-12-20T06:53:03;13.70;;;7.35;;
24547;SDS011;12713;51.624;4.924;2022-12-20T06:55:29;14.27;;;7.72;;
24547;SDS011;12713;51.624;4.924;2022-12-20T06:57:55;10.52;;;5.93;;
24547;SDS011;12713;51.624;4.924;2022-12-20T07:00:21;8.27;;;6.15;;
24547;SDS011;12713;51.624;4.924;2022-12-20T07:02:48;8.40;;;4.68;;
24547;SDS011;12713;51.624;4.924;2022-12-20T07:05:14;10.02;;;6.00;;
24547;SDS011;12713;51.624;4.924;2022-12-20T07:07:40;9.00;;;6.28;;
24547;SDS011;12713;51.624;4.924;2022-12-20T07:10:06;12.18;;;7.30;;
24547;SDS011;12713;51.624;4.924;2022-12-20T07:12:32;11.07;;;7.15;;
24547;SDS011;12713;51.624;4.924;2022-12-20T07:14:58;8.40;;;5.93;;
24547;SDS011;12713;51.624;4.924;2022-12-20T07:17:24;11.38;;;7.63;;
24547;SDS011;12713;51.624;4.924;2022-12-20T07:19:50;13.45;;;8.73;;
24547;SDS011;12713;51.624;4.924;2022-12-20T07:22:17;15.25;;;9.63;;
24547;SDS011;12713;51.624;4.924;2022-12-20T07:24:43;11.40;;;7.30;;
24547;SDS011;12713;51.624;4.924;2022-12-20T07:27:11;14.30;;;8.18;;
24547;SDS011;12713;51.624;4.924;2022-12-20T07:29:37;8.90;;;6.22;;
24547;SDS011;12713;51.624;4.924;2022-12-20T07:32:05;11.88;;;8.05;;
24547;SDS011;12713;51.624;4.924;2022-12-20T07:34:31;12.27;;;9.50;;
24547;SDS011;12713;51.624;4.924;2022-12-20T07:36:57;10.90;;;5.25;;
24547;SDS011;12713;51.624;4.924;2022-12-20T07:39:23;11.90;;;5.00;;
24547;SDS011;12713;51.624;4.924;2022-12-20T07:41:52;12.82;;;7.22;;
24547;SDS011;12713;51.624;4.924;2022-12-20T07:44:18;7.20;;;4.40;;
24547;SDS011;12713;51.624;4.924;2022-12-20T07:46:44;14.77;;;8.25;;
24547;SDS011;12713;51.624;4.924;2022-12-20T07:49:10;10.57;;;6.30;;
24547;SDS011;12713;51.624;4.924;2022-12-20T07:51:47;16.48;;;8.90;;
24547;SDS011;12713;51.624;4.924;2022-12-20T07:54:14;6.35;;;3.90;;
24547;SDS011;12713;51.624;4.924;2022-12-20T07:56:44;8.55;;;5.75;;
24547;SDS011;12713;51.624;4.924;2022-12-20T07:59:11;10.25;;;3.90;;
24547;SDS011;12713;51.624;4.924;2022-12-20T08:01:38;12.43;;;7.55;;
24547;SDS011;12713;51.624;4.924;2022-12-20T08:04:12;9.20;;;5.10;;
24547;SDS011;12713;51.624;4.924;2022-12-20T08:06:39;5.07;;;3.40;;
24547;SDS011;12713;51.624;4.924;2022-12-20T08:09:05;4.72;;;2.60;;
24547;SDS011;12713;51.624;4.924;2022-12-20T08:11:32;4.75;;;2.90;;
24547;SDS011;12713;51.624;4.924;2022-12-20T08:13:59;7.10;;;3.25;;
24547;SDS011;12713;51.624;4.924;2022-12-20T08:16:25;8.20;;;3.22;;
24547;SDS011;12713;51.624;4.924;2022-12-20T08:18:51;5.05;;;3.10;;
24547;SDS011;12713;51.624;4.924;2022-12-20T08:21:17;7.38;;;3.20;;
24547;SDS011;12713;51.624;4.924;2022-12-20T08:23:43;9.90;;;3.40;;
24547;SDS011;12713;51.624;4.924;2022-12-20T08:26:09;6.25;;;3.50;;
24547;SDS011;12713;51.624;4.924;2022-12-20T08:28:35;4.72;;;3.83;;
24547;SDS011;12713;51.624;4.924;2022-12-20T08:31:04;6.80;;;3.53;;
24547;SDS011;12713;51.624;4.924;2022-12-20T08:33:31;7.50;;;4.05;;
24547;SDS011;12713;51.624;4.924;2022-12-20T08:36:01;10.63;;;5.70;;
24547;SDS011;12713;51.624;4.924;2022-12-20T08:38:27;12.90;;;7.80;;
24547;SDS011;12713;51.624;4.924;2022-12-20T08:40:55;11.05;;;5.47;;
24547;SDS011;12713;51.624;4.924;2022-12-20T08:43:21;9.30;;;5.50;;
24547;SDS011;12713;51.624;4.924;2022-12-20T08:45:53;8.20;;;5.05;;
24547;SDS011;12713;51.624;4.924;2022-12-20T08:48:20;12.70;;;4.85;;
24547;SDS011;12713;51.624;4.924;2022-12-20T08:50:46;8.40;;;4.95;;
24547;SDS011;12713;51.624;4.924;2022-12-20T08:53:12;8.73;;;4.25;;
24547;SDS011;12713;51.624;4.924;2022-12-20T08:55:38;5.90;;;4.28;;
24547;SDS011;12713;51.624;4.924;2022-12-20T08:58:04;9.98;;;4.60;;
24547;SDS011;12713;51.624;4.924;2022-12-20T09:00:30;13.73;;;5.85;;
24547;SDS011;12713;51.624;4.924;2022-12-20T09:02:57;7.72;;;4.70;;
24547;SDS011;12713;51.624;4.924;2022-12-20T09:05:23;10.88;;;7.13;;
24547;SDS011;12713;51.624;4.924;2022-12-20T09:07:49;11.43;;;6.85;;
24547;SDS011;12713;51.624;4.924;2022-12-20T09:10:15;14.63;;;10.38;;
24547;SDS011;12713;51.624;4.924;2022-12-20T09:12:41;8.73;;;4.30;;
24547;SDS011;12713;51.624;4.924;2022-12-20T09:15:08;9.38;;;4.65;;
24547;SDS011;12713;51.624;4.924;2022-12-20T09:17:34;7.97;;;5.18;;
24547;SDS011;12713;51.624;4.924;2022-12-20T09:20:03;14.70;;;6.25;;
24547;SDS011;12713;51.624;4.924;2022-12-20T09:22:29;8.65;;;5.05;;
24547;SDS011;12713;51.624;4.924;2022-12-20T09:24:55;8.40;;;5.50;;
24547;SDS011;12713;51.624;4.924;2022-12-20T09:27:22;10.18;;;6.72;;
24547;SDS011;12713;51.624;4.924;2022-12-20T09:29:48;7.35;;;4.38;;
24547;SDS011;12713;51.624;4.924;2022-12-20T09:32:34;11.93;;;5.20;;
24547;SDS011;12713;51.624;4.924;2022-12-20T09:35:01;10.18;;;4.60;;
24547;SDS011;12713;51.624;4.924;2022-12-20T09:37:30;11.13;;;6.05;;
24547;SDS011;12713;51.624;4.924;2022-12-20T09:40:00;12.13;;;5.88;;
24547;SDS011;12713;51.624;4.924;2022-12-20T09:42:26;9.27;;;5.45;;
24547;SDS011;12713;51.624;4.924;2022-12-20T09:45:04;10.55;;;4.80;;
24547;SDS011;12713;51.624;4.924;2022-12-20T09:47:32;9.43;;;5.18;;
24547;SDS011;12713;51.624;4.924;2022-12-20T09:49:59;11.18;;;4.78;;
24547;SDS011;12713;51.624;4.924;2022-12-20T09:57:46;12.40;;;5.38;;
24547;SDS011;12713;51.624;4.924;2022-12-20T10:00:15;8.63;;;5.32;;
24547;SDS011;12713;51.624;4.924;2022-12-20T10:02:42;10.90;;;6.82;;
24547;SDS011;12713;51.624;4.924;2022-12-20T10:05:23;10.77;;;5.13;;
24547;SDS011;12713;51.624;4.924;2022-12-20T10:07:57;9.23;;;4.95;;
24547;SDS011;12713;51.624;4.924;2022-12-20T10:13:22;9.57;;;4.93;;
24547;SDS011;12713;51.624;4.924;2022-12-20T10:15:53;8.05;;;4.60;;
24547;SDS011;12713;51.624;4.924;2022-12-20T10:18:23;12.90;;;4.60;;
24547;SDS011;12713;51.624;4.924;2022-12-20T10:21:00;11.70;;;4.97;;
24547;SDS011;12713;51.624;4.924;2022-12-20T10:23:41;12.73;;;4.85;;
24547;SDS011;12713;51.624;4.924;2022-12-20T10:26:10;12.68;;;5.75;;
24547;SDS011;12713;51.624;4.924;2022-12-20T10:28:39;16.30;;;7.07;;
24547;SDS011;12713;51.624;4.924;2022-12-20T10:31:12;11.13;;;5.60;;
24547;SDS011;12713;51.624;4.924;2022-12-20T10:33:42;9.95;;;5.32;;
24547;SDS011;12713;51.624;4.924;2022-12-20T10:36:19;8.90;;;5.68;;
24547;SDS011;12713;51.624;4.924;2022-12-20T10:38:56;9.75;;;5.53;;
24547;SDS011;12713;51.624;4.924;2022-12-20T10:43:59;9.57;;;5.88;;
24547;SDS011;12713;51.624;4.924;2022-12-20T10:49:19;10.15;;;6.00;;
24547;SDS011;12713;51.624;4.924;2022-12-20T11:01:20;12.00;;;5.72;;
24547;SDS011;12713;51.624;4.924;2022-12-20T11:09:41;12.10;;;7.40;;
24547;SDS011;12713;51.624;4.924;2022-12-20T11:12:19;10.27;;;6.07;;
24547;SDS011;12713;51.624;4.924;2022-12-20T11:14:48;15.38;;;7.95;;
24547;SDS011;12713;51.624;4.924;2022-12-20T11:29:15;13.02;;;7.05;;
24547;SDS011;12713;51.624;4.924;2022-12-20T11:53:44;11.95;;;6.20;;
24547;SDS011;12713;51.624;4.924;2022-12-20T12:08:20;8.70;;;6.18;;
24547;SDS011;12713;51.624;4.924;2022-12-20T12:16:49;10.27;;;7.05;;
24547;SDS011;12713;51.624;4.924;2022-12-20T12:19:18;10.82;;;6.57;;
24547;SDS011;12713;51.624;4.924;2022-12-20T12:22:04;11.82;;;7.15;;
24547;SDS011;12713;51.624;4.924;2022-12-20T12:46:07;15.20;;;7.43;;
24547;SDS011;12713;51.624;4.924;2022-12-20T12:48:38;13.65;;;7.88;;
24547;SDS011;12713;51.624;4.924;2022-12-20T12:51:08;14.30;;;8.20;;
24547;SDS011;12713;51.624;4.924;2022-12-20T12:56:35;11.98;;;7.57;;
24547;SDS011;12713;51.624;4.924;2022-12-20T13:04:27;14.23;;;7.75;;
24547;SDS011;12713;51.624;4.924;2022-12-20T13:06:59;11.80;;;7.93;;
24547;SDS011;12713;51.624;4.924;2022-12-20T13:11:58;14.40;;;7.10;;
24547;SDS011;12713;51.624;4.924;2022-12-20T13:16:53;10.88;;;7.30;;
24547;SDS011;12713;51.624;4.924;2022-12-20T13:19:46;14.40;;;7.25;;
24547;SDS011;12713;51.624;4.924;2022-12-20T13:22:23;11.60;;;7.25;;
24547;SDS011;12713;51.624;4.924;2022-12-20T13:24:58;10.80;;;7.30;;
24547;SDS011;12713;51.624;4.924;2022-12-20T13:29:58;11.05;;;7.57;;
24547;SDS011;12713;51.624;4.924;2022-12-20T13:38:04;12.95;;;7.18;;
24547;SDS011;12713;51.624;4.924;2022-12-20T13:43:04;9.85;;;6.10;;
24547;SDS011;12713;51.624;4.924;2022-12-20T13:45:33;11.38;;;7.13;;
24547;SDS011;12713;51.624;4.924;2022-12-20T13:48:03;13.77;;;6.82;;
24547;SDS011;12713;51.624;4.924;2022-12-20T13:50:38;15.52;;;7.75;;
24547;SDS011;12713;51.624;4.924;2022-12-20T13:53:13;11.98;;;7.03;;
24547;SDS011;12713;51.624;4.924;2022-12-20T13:55:41;11.75;;;6.72;;
24547;SDS011;12713;51.624;4.924;2022-12-20T13:58:18;12.25;;;7.10;;
24547;SDS011;12713;51.624;4.924;2022-12-20T14:00:47;11.48;;;7.15;;
24547;SDS011;12713;51.624;4.924;2022-12-20T14:03:17;7.72;;;5.85;;
24547;SDS011;12713;51.624;4.924;2022-12-20T14:05:46;11.20;;;6.90;;
24547;SDS011;12713;51.624;4.924;2022-12-20T14:08:14;9.93;;;7.00;;
24547;SDS011;12713;51.624;4.924;2022-12-20T14:10:46;11.82;;;6.28;;
24547;SDS011;12713;51.624;4.924;2022-12-20T14:13:22;11.57;;;6.75;;
24547;SDS011;12713;51.624;4.924;2022-12-20T14:15:49;11.40;;;6.00;;
24547;SDS011;12713;51.624;4.924;2022-12-20T14:18:21;9.13;;;6.57;;
24547;SDS011;12713;51.624;4.924;2022-12-20T14:20:55;8.70;;;6.03;;
24547;SDS011;12713;51.624;4.924;2022-12-20T14:23:28;7.95;;;5.85;;
24547;SDS011;12713;51.624;4.924;2022-12-20T14:25:58;11.10;;;7.03;;
24547;SDS011;12713;51.624;4.924;2022-12-20T14:28:41;10.07;;;6.30;;
24547;SDS011;12713;51.624;4.924;2022-12-20T14:39:36;9.98;;;6.38;;
24547;SDS011;12713;51.624;4.924;2022-12-20T14:45:20;10.30;;;6.38;;
24547;SDS011;12713;51.624;4.924;2022-12-20T14:50:35;9.88;;;6.40;;
24547;SDS011;12713;51.624;4.924;2022-12-20T14:53:01;8.18;;;7.10;;
24547;SDS011;12713;51.624;4.924;2022-12-20T14:55:37;12.00;;;6.50;;
24547;SDS011;12713;51.624;4.924;2022-12-20T15:01:25;11.77;;;6.85;;
24547;SDS011;12713;51.624;4.924;2022-12-20T15:03:55;13.45;;;8.00;;
24547;SDS011;12713;51.624;4.924;2022-12-20T15:08:59;9.35;;;6.97;;
24547;SDS011;12713;51.624;4.924;2022-12-20T15:11:25;10.82;;;7.22;;
24547;SDS011;12713;51.624;4.924;2022-12-20T15:13:57;9.20;;;7.25;;
24547;SDS011;12713;51.624;4.924;2022-12-20T15:16:24;10.30;;;7.47;;
24547;SDS011;12713;51.624;4.924;2022-12-20T15:18:52;10.93;;;7.88;;
24547;SDS011;12713;51.624;4.924;2022-12-20T15:21:34;9.27;;;7.30;;
24547;SDS011;12713;51.624;4.924;2022-12-20T15:24:20;15.50;;;8.70;;
24547;SDS011;12713;51.624;4.924;2022-12-20T15:26:53;11.63;;;7.65;;
24547;SDS011;12713;51.624;4.924;2022-12-20T15:29:24;10.50;;;8.13;;
24547;SDS011;12713;51.624;4.924;2022-12-20T15:31:56;10.98;;;8.48;;
24547;SDS011;12713;51.624;4.924;2022-12-20T15:34:32;10.93;;;8.15;;
24547;SDS011;12713;51.624;4.924;2022-12-20T15:40:04;12.02;;;8.68;;
24547;SDS011;12713;51.624;4.924;2022-12-20T15:42:30;13.77;;;9.35;;
24547;SDS011;12713;51.624;4.924;2022-12-20T15:44:59;13.05;;;9.55;;
24547;SDS011;12713;51.624;4.924;2022-12-20T15:47:26;12.32;;;9.48;;
24547;SDS011;12713;51.624;4.924;2022-12-20T15:49:54;14.40;;;9.90;;
24547;SDS011;12713;51.624;4.924;2022-12-20T15:52:21;12.00;;;10.07;;
24547;SDS011;12713;51.624;4.924;2022-12-20T15:54:48;12.15;;;10.18;;
24547;SDS011;12713;51.624;4.924;2022-12-20T15:57:16;17.60;;;10.90;;
24547;SDS011;12713;51.624;4.924;2022-12-20T15:59:42;12.55;;;10.00;;
24547;SDS011;12713;51.624;4.924;2022-12-20T16:02:26;13.52;;;11.15;;
24547;SDS011;12713;51.624;4.924;2022-12-20T16:04:55;12.68;;;10.70;;
24547;SDS011;12713;51.624;4.924;2022-12-20T16:07:22;17.58;;;11.23;;
24547;SDS011;12713;51.624;4.924;2022-12-20T16:09:51;15.88;;;11.93;;
24547;SDS011;12713;51.624;4.924;2022-12-20T16:12:19;15.80;;;11.73;;
24547;SDS011;12713;51.624;4.924;2022-12-20T16:14:46;15.98;;;11.85;;
24547;SDS011;12713;51.624;4.924;2022-12-20T16:17:15;17.33;;;12.15;;
24547;SDS011;12713;51.624;4.924;2022-12-20T16:19:42;16.25;;;11.82;;
24547;SDS011;12713;51.624;4.924;2022-12-20T16:22:12;15.68;;;11.82;;
24547;SDS011;12713;51.624;4.924;2022-12-20T16:24:46;15.85;;;13.30;;
24547;SDS011;12713;51.624;4.924;2022-12-20T16:27:12;15.00;;;11.93;;
24547;SDS011;12713;51.624;4.924;2022-12-20T16:29:39;16.65;;;13.00;;
24547;SDS011;12713;51.624;4.924;2022-12-20T16:32:12;15.75;;;12.70;;
24547;SDS011;12713;51.624;4.924;2022-12-20T16:34:39;16.80;;;12.65;;
24547;SDS011;12713;51.624;4.924;2022-12-20T16:37:05;17.50;;;13.10;;
24547;SDS011;12713;51.624;4.924;2022-12-20T16:39:31;17.65;;;14.23;;
24547;SDS011;12713;51.624;4.924;2022-12-20T16:42:03;18.23;;;14.75;;
24547;SDS011;12713;51.624;4.924;2022-12-20T16:44:31;18.92;;;14.77;;
24547;SDS011;12713;51.624;4.924;2022-12-20T16:46:57;19.42;;;14.90;;
24547;SDS011;12713;51.624;4.924;2022-12-20T16:49:23;17.95;;;15.23;;
24547;SDS011;12713;51.624;4.924;2022-12-20T16:51:49;20.58;;;16.33;;
24547;SDS011;12713;51.624;4.924;2022-12-20T16:54:24;19.60;;;15.95;;
24547;SDS011;12713;51.624;4.924;2022-12-20T16:56:51;21.00;;;15.13;;
24547;SDS011;12713;51.624;4.924;2022-12-20T16:59:21;23.52;;;16.63;;
24547;SDS011;12713;51.624;4.924;2022-12-20T17:01:48;23.00;;;16.95;;
24547;SDS011;12713;51.624;4.924;2022-12-20T17:04:14;20.77;;;16.15;;
24547;SDS011;12713;51.624;4.924;2022-12-20T17:06:41;25.10;;;18.10;;
24547;SDS011;12713;51.624;4.924;2022-12-20T17:09:11;23.70;;;18.52;;
24547;SDS011;12713;51.624;4.924;2022-12-20T17:11:42;23.75;;;18.08;;
24547;SDS011;12713;51.624;4.924;2022-12-20T17:14:12;24.23;;;18.92;;
24547;SDS011;12713;51.624;4.924;2022-12-20T17:16:38;25.42;;;19.20;;
24547;SDS011;12713;51.624;4.924;2022-12-20T17:19:04;25.98;;;19.20;;
24547;SDS011;12713;51.624;4.924;2022-12-20T17:21:34;24.88;;;19.38;;
24547;SDS011;12713;51.624;4.924;2022-12-20T17:24:01;27.63;;;21.15;;
24547;SDS011;12713;51.624;4.924;2022-12-20T17:26:28;26.15;;;20.52;;
24547;SDS011;12713;51.624;4.924;2022-12-20T17:28:55;27.48;;;20.60;;
24547;SDS011;12713;51.624;4.924;2022-12-20T17:31:25;28.17;;;21.15;;
24547;SDS011;12713;51.624;4.924;2022-12-20T17:34:00;24.48;;;20.38;;
24547;SDS011;12713;51.624;4.924;2022-12-20T17:36:33;27.60;;;21.25;;
24547;SDS011;12713;51.624;4.924;2022-12-20T17:39:08;28.05;;;20.52;;
24547;SDS011;12713;51.624;4.924;2022-12-20T17:41:40;28.65;;;20.35;;
24547;SDS011;12713;51.624;4.924;2022-12-20T17:44:10;31.35;;;22.58;;
24547;SDS011;12713;51.624;4.924;2022-12-20T17:46:39;26.52;;;20.40;;
24547;SDS011;12713;51.624;4.924;2022-12-20T17:49:05;28.73;;;20.50;;
24547;SDS011;12713;51.624;4.924;2022-12-20T17:51:44;39.42;;;28.27;;
24547;SDS011;12713;51.624;4.924;2022-12-20T17:54:30;38.47;;;27.80;;
24547;SDS011;12713;51.624;4.924;2022-12-20T17:56:57;41.17;;;30.20;;
24547;SDS011;12713;51.624;4.924;2022-12-20T18:02:22;31.92;;;24.20;;
24547;SDS011;12713;51.624;4.924;2022-12-20T18:04:54;29.77;;;22.98;;
24547;SDS011;12713;51.624;4.924;2022-12-20T18:07:23;31.90;;;23.10;;
24547;SDS011;12713;51.624;4.924;2022-12-20T18:09:49;30.52;;;23.52;;
24547;SDS011;12713;51.624;4.924;2022-12-20T18:12:16;31.52;;;25.17;;
24547;SDS011;12713;51.624;4.924;2022-12-20T18:14:42;35.05;;;25.17;;
24547;SDS011;12713;51.624;4.924;2022-12-20T18:17:08;33.15;;;23.65;;
24547;SDS011;12713;51.624;4.924;2022-12-20T18:19:34;34.20;;;24.25;;
24547;SDS011;12713;51.624;4.924;2022-12-20T18:22:00;32.22;;;24.33;;
24547;SDS011;12713;51.624;4.924;2022-12-20T18:24:28;32.25;;;24.15;;